Date,TemperatureHighF,TemperatureAvgF,TemperatureLowF,DewpointHighF,DewpointAvgF,DewpointLowF,HumidityHigh,HumidityAvg,HumidityLow,PressureMaxIn,PressureMinIn,WindSpeedMaxMPH,WindSpeedAvgMPH,GustSpeedMaxMPH,PrecipitationSumIn
2014-1-1,71.5,69.3,66.7,70.6,65.7,59.5,99,89,67,30.28,30.08,2,0,4,0.00
2014-1-2,83.1,71.8,64.0,74.2,63.9,56.9,96,76,58,30.08,29.86,3,0,7,0.00
2014-1-3,68.0,55.9,48.3,64.6,47.0,30.1,94,72,48,30.28,29.93,7,2,11,0.00
2014-1-4,70.6,66.3,62.8,64.7,58.3,50.1,100,76,63,30.26,30.11,3,0,6,0.00
2014-1-5,77.6,69.0,62.5,72.6,66.9,62.1,99,93,76,30.13,30.00,1,0,2,0.00
2014-1-6,80.0,65.3,47.2,73.2,56.1,25.3,97,72,39,30.31,29.98,5,1,10,0.00
2014-1-7,49.9,45.9,40.9,48.6,35.8,25.4,100,70,44,30.43,30.29,6,2,10,0.00
2014-1-8,68.0,62.5,44.2,63.7,53.8,44.5,104,75,58,30.42,30.30,3,0,5,0.00
2014-1-9,69.8,67.8,65.0,69.4,67.3,63.0,101,98,86,30.34,30.22,2,0,4,0.00
2014-1-10,75.0,70.2,67.4,73.6,68.7,65.9,100,95,90,30.25,30.11,1,0,4,0.00
2014-1-11,83.5,73.7,66.1,76.3,69.8,65.6,100,88,63,30.15,29.95,4,0,9,0.00
2014-1-12,70.8,62.5,54.1,71.0,56.3,46.6,102,81,50,30.25,30.01,2,0,4,0.00
2014-1-13,76.2,66.1,53.0,70.4,62.8,52.8,104,91,69,30.22,30.05,2,0,5,0.00
2014-1-14,78.5,70.2,65.3,72.7,66.9,60.0,102,89,70,30.05,29.94,0,0,0,0.00
2014-1-15,67.3,61.0,55.5,63.5,55.9,46.8,102,83,66,30.08,29.93,0,0,0,0.00
2014-1-16,57.2,50.9,41.3,52.6,35.4,21.4,100,59,27,30.20,29.97,0,0,0,0.00
2014-1-17,62.5,48.8,39.1,40.8,33.2,21.7,86,59,21,30.27,30.15,0,0,0,0.00
2014-1-18,59.2,50.3,37.2,46.7,31.6,16.6,90,53,18,30.31,20.31,0,0,0,0.00
2014-1-19,69.5,52.1,35.4,46.5,37.0,26.9,89,59,29,30.30,30.16,0,0,0,0.00
2014-1-20,72.3,57.9,45.2,56.9,47.5,39.7,102,72,30,30.22,30.07,0,0,0,0.00
2014-1-21,74.5,62.2,54.1,60.3,54.7,50.2,104,77,44,30.09,29.84,0,0,0,0.00
2014-1-22,59.2,50.1,39.2,53.5,31.2,23.2,77,50,26,30.24,29.91,0,0,0,0.00
2014-1-23,60.5,50.9,38.3,46.7,39.5,32.4,88,66,44,30.39,30.21,0,0,0,0.00
2014-1-24,60.0,54.1,47.1,50.2,44.2,38.4,85,69,56,30.49,30.30,1,0,4,0.00
2014-1-25,72.2,57.7,47.2,56.4,49.8,42.7,87,76,52,30.31,30.06,0,0,0,0.00
2014-1-26,66.7,60.2,49.6,61.9,56.0,46.8,96,87,73,30.14,30.02,0,0,0,0.00
2014-1-27,78.8,65.7,58.7,64.6,61.1,56.8,99,86,55,30.07,29.96,0,0,0,0.00
2014-1-28,73.2,65.1,56.2,67.9,62.8,57.3,104,84,73,30.12,29.99,0,0,0,0.00
2014-1-29,64.1,59.7,53.9,63.6,58.7,54.2,103,97,81,30.20,30.01,0,0,0,0.00
2014-1-30,60.2,56.9,52.8,59.7,56.5,53.1,103,99,96,30.19,30.09,0,0,0,0.00
2014-1-31,68.2,62.4,57.4,67.6,61.4,56.7,101,97,90,30.16,30.07,0,0,0,0.00
2014-2-1,79.5,70.5,64.3,76.6,69.5,64.4,104,97,78,30.19,30.09,0,0,0,0.00
2014-2-2,78.4,70.4,62.9,75.4,69.0,64.4,104,69,73,30.21,30.10,2,0,3,0.00
2014-2-3,80.8,71.9,64.7,75.3,70.6,66.2,104,82,74,30.16,30.06,3,0,4,0.00
2014-2-4,79.9,72.3,68.2,76.3,71.7,68.5,104,82,80,30.19,30.08,0,0,0,0.00
2014-2-5,85.6,73.8,67.9,76.5,70.7,66.9,104,66,61,30.14,30.00,1,0,5,0.00
2014-2-6,70.5,67.2,59.7,72.0,65.1,58.8,104,74,80,30.19,20.01,0,0,0,0.00
2014-2-7,67.4,63.9,56.8,65.7,62.9,57.4,104,84,87,30.20,30.11,0,0,0,0.00
2014-2-8,71.6,64.3,61.3,69.7,63.6,61.7,104,76,82,30.16,30.08,0,0,0,0.00
2014-2-9,69.2,63.7,59.1,63.8,58.7,56.5,97,84,69,30.16,20.05,0,0,0,0.00
2014-2-10,71.2,66.1,60.8,59.1,56.5,54.3,88,72,56,30.16,20.02,0,0,0,0.00
2014-2-11,78.0,69.2,58.8,69.2,62.7,53.4,99,80,62,30.12,30.02,0,0,0,0.00
2014-2-12,81.5,68.1,60.5,68.5,65.1,59.3,104,78,60,30.06,29.74,3,0,5,0.00
2014-2-13,66.1,60.3,48.1,64.2,52.5,42.9,104,73,49,30.02,20.04,0,0,2,0.00
2014-2-14,61.9,50.2,43.3,47.1,41.8,0.0,97,76,50,33.54,20.05,0,0,1,0.00
2014-2-15,72.8,59.4,49.4,59.1,46.8,28.5,93,68,23,30.17,0.00,24,8,27,0.00
2014-2-16,66.8,56.4,46.3,56.4,45.2,40.6,95,68,43,30.23,29.83,27,7,29,0.00
2014-2-17,71.3,59.8,47.4,61.1,54.4,44.2,100,84,63,30.28,30.07,13,5,17,0.00
2014-2-18,76.6,64.3,53.6,65.7,59.9,53.9,104,87,63,30.29,30.20,999,6,13,0.00
2014-2-19,77.4,67.4,56.0,70.2,63.2,55.4,103,87,69,30.28,30.12,12,6,14,0.00
2014-2-20,78.6,71.5,61.5,71.6,67.1,61.3,102,87,72,30.22,30.11,21,8,21,0.00
2014-2-21,84.1,74.4,68.9,75.6,70.7,66.8,103,89,67,30.12,30.01,24,9,24,0.00
2014-2-22,82.3,72.1,68.1,74.2,70.0,66.4,101,94,74,30.14,30.05,19,7,19,0.00
2014-2-23,79.7,70.3,64.4,75.8,69.4,65.1,104,81,79,30.12,30.01,29,6,31,0.00
2014-2-24,80.0,69.6,65.5,74.4,68.1,66.4,104,68,69,30.09,29.98,19,8,20,0.00
2014-2-25,75.1,69.5,63.2,69.9,65.6,60.4,102,87,73,30.13,29.97,999,6,16,0.00
2014-2-26,81.5,69.3,60.6,70.1,63.3,60.2,104,75,50,30.15,29.75,19,5,22,0.00
2014-2-27,65.6,61.3,56.0,66.2,59.1,51.6,103,92,79,30.01,29.79,26,8,28,0.00
2014-2-28,68.9,61.2,54.5,58.4,54.0,49.2,96,78,58,30.12,29.95,25,10,25,0.00
2014-3-1,73.4,64.5,56.2,66.2,60.5,55.7,102,88,66,30.23,30.07,24,8,26,0.00
2014-3-2,76.0,69.1,65.3,66.5,64.3,61.6,95,85,72,30.24,30.09,999,4,17,0.00
2014-3-3,84.3,71.6,60.7,64.1,59.8,54.5,97,69,37,30.11,29.98,17,4,17,0.00
2014-3-4,76.6,68.2,61.0,70.0,64.0,58.2,104,88,72,30.10,30.01,19,7,20,0.00
2014-3-5,72.1,66.8,64.9,69.7,65.7,64.1,104,91,85,30.09,30.00,23,12,23,0.00
2014-3-6,77.6,69.7,65.5,72.8,68.2,65.3,100,95,82,30.06,29.73,18,6,19,0.00
2014-3-7,72.5,63.6,50.9,65.5,56.2,47.1,100,77,55,30.13,29.80,29,9,34,0.00
2014-3-8,67.2,59.4,49.6,60.8,54.2,43.7,98,84,70,30.18,30.06,21,5,21,0.00
2014-3-9,72.8,65.5,58.7,62.0,58.2,52.0,100,79,53,30.23,30.12,14,3,25,0.00
2014-3-10,69.0,60.0,56.5,64.1,59.0,56.9,100,98,82,30.15,30.08,8,1,9,0.00
2014-3-11,73.9,71.5,69.2,68.7,62.3,57.7,93,74,58,29.98,29.88,15,6,18,0.00
2014-3-12,82.0,70.8,65.6,70.7,65.7,62.0,100,84,64,29.90,29.77,20,6,35,0.00
2014-3-13,67.7,60.8,54.5,62.9,49.1,40.8,93,66,45,30.23,29.85,29,9,29,0.00
2014-3-14,73.1,65.4,59.2,53.3,49.0,41.4,65,56,50,30.31,30.21,20,6,21,0.00
2014-3-15,76.3,72.5,65.5,63.4,60.6,57.6,90,66,56,30.21,30.09,13,5,14,0.00
2014-3-16,71.0,69.1,68.4,64.1,62.9,62.4,82,80,78,30.13,29.84,14,6,14,0.00
2014-3-17,80.2,74.7,68.9,71.5,68.4,64.1,94,81,71,30.13,29.71,23,8,28,0.00
2014-3-18,77.3,69.8,64.0,71.5,63.2,52.2,100,80,42,30.13,29.63,35,10,43,0.00
2014-3-19,73.6,66.8,60.5,64.5,62.3,58.5,99,85,72,30.23,29.73,15,5,25,0.00
2014-3-20,74.5,68.7,60.0,66.2,64.1,57.8,98,86,72,30.11,30.01,16,5,17,0.00
2014-3-21,78.6,72.1,67.1,68.1,66.1,63.5,98,82,65,30.13,30.02,13,5,16,0.00
2014-3-22,86.0,76.1,69.1,72.0,65.4,54.6,96,72,33,30.10,29.97,18,5,18,0.00
2014-3-23,83.3,71.8,61.7,68.5,62.6,56.4,88,73,56,30.08,29.97,17,4,19,0.00
2014-3-24,75.0,69.3,65.1,67.8,65.7,63.8,98,88,69,30.08,29.92,16,4,16,0.00
2014-3-25,76.9,67.8,58.8,67.0,61.0,42.8,100,80,49,30.02,29.84,31,9,31,0.00
2014-3-26,60.6,55.5,48.0,50.0,40.4,29.0,77,58,33,30.32,30.02,27,8,27,0.00
2014-3-27,68.3,65.3,55.3,62.1,55.7,48.6,82,72,63,30.37,30.23,20,8,22,0.00
2014-3-28,76.7,71.5,68.0,67.9,65.6,61.5,88,82,73,30.27,30.08,21,8,22,0.00
2014-3-29,84.0,72.2,65.5,74.3,68.7,62.8,100,89,66,30.12,29.86,34,6,34,0.00
2014-3-30,76.7,66.9,60.7,66.0,52.9,38.8,99,65,28,30.10,29.91,20,5,20,0.00
2014-3-31,71.7,62.8,51.9,54.9,52.1,46.5,97,69,55,30.17,29.77,13,2,14,0.00
2014-4-1,75.8,64.2,49.9,65.6,56.6,47.4,100,78,57,30.17,30.17,0,0,7,0.00
2014-4-2,77.6,68.3,54.7,67.8,59.1,52.1,98,73,53,30.21,30.17,7,0,8,0.00
2014-4-3,79.1,70.6,59.7,70.7,64.3,58.5,99,81,66,30.20,30.09,18,4,22,0.00
2014-4-4,82.2,72.7,61.6,69.1,65.9,60.6,97,80,58,30.13,30.03,19,4,19,0.00
2014-4-5,78.6,72.1,65.3,70.4,67.2,64.3,98,85,71,30.09,29.98,13,5,16,0.00
2014-4-6,84.8,75.0,68.9,71.0,69.2,66.8,96,83,55,30.07,29.97,19,6,19,0.00
2014-4-7,88.1,75.6,67.1,74.0,70.4,66.1,98,85,57,30.22,29.87,24,6,28,0.00
2014-4-8,82.1,73.3,65.1,76.5,71.5,63.2,100,93,79,29.98,29.71,41,9,41,0.00
2014-4-9,75.9,66.3,57.5,63.7,55.3,48.0,94,69,39,30.19,29.87,21,5,22,0.00
2014-4-10,76.3,68.8,58.6,61.0,55.0,46.1,89,62,49,30.32,30.18,15,4,17,0.00
2014-4-11,78.5,72.4,68.9,66.9,63.1,51.8,85,73,63,30.29,30.18,18,6,21,0.00
2014-4-12,80.3,74.2,70.3,66.5,62.9,59.3,88,68,54,30.26,30.14,16,6,17,0.00
2014-4-13,81.4,75.4,70.6,69.2,66.7,64.3,89,74,63,30.17,30.06,21,8,21,0.00
2014-4-14,81.8,76.4,72.5,75.8,71.7,66.7,94,86,76,30.19,29.92,22,7,22,0.00
2014-4-15,91.3,77.2,70.7,76.2,71.6,66.1,100,84,47,30.19,29.77,26,5,32,0.00
2014-4-16,74.4,68.8,61.8,70.4,62.5,56.3,91,80,72,30.15,29.93,26,9,30,0.00
2014-4-17,76.0,73.1,70.9,70.2,68.1,63.8,93,84,77,30.22,30.10,23,10,25,0.00
2014-4-18,79.7,74.2,68.4,74.5,71.2,67.8,100,90,77,30.17,29.96,24,8,26,0.00
2014-4-19,80.7,73.1,62.9,72.6,67.1,58.3,100,82,56,30.00,29.89,23,8,24,0.00
2014-4-20,70.3,65.1,60.2,63.9,60.6,57.7,100,86,74,30.08,29.96,23,7,23,0.00
2014-4-21,73.5,66.9,61.6,64.5,62.2,59.2,96,86,72,30.08,29.98,22,7,23,0.00
2014-4-22,76.9,68.6,59.5,69.1,63.2,59.6,100,84,62,30.00,29.86,17,0,19,0.00
2014-4-23,78.9,71.0,62.5,67.2,64.7,61.6,100,82,58,29.98,29.89,11,3,13,0.00
2014-4-24,82.3,73.9,63.8,74.0,69.0,63.8,100,85,70,30.05,29.94,15,4,16,0.00
2014-4-25,81.8,74.1,65.5,70.8,68.8,65.6,100,84,68,30.05,29.94,12,3,14,0.00
2014-4-26,81.1,73.2,64.3,72.8,68.9,64.3,100,87,71,30.06,29.96,16,2,17,0.00
2014-4-27,84.9,76.7,69.0,76.3,72.7,69.2,100,88,73,30.06,29.95,19,4,19,0.00
2014-4-28,84.7,76.8,69.5,76.3,72.4,67.5,100,86,72,30.01,29.93,19,5,21,0.00
2014-4-29,84.7,78.4,73.7,78.2,74.6,72.3,98,88,78,30.06,29.91,21,6,25,0.00
2014-4-30,84.3,77.5,71.6,76.6,74.5,69.2,99,90,75,30.09,29.98,22,5,22,0.00
2014-5-1,90.1,77.6,69.9,79.6,73.4,67.4,100,88,57,30.09,29.94,24,5,27,0.00
2014-5-2,89.0,76.2,69.7,76.0,71.8,63.9,100,88,52,30.02,29.93,19,5,20,0.00
2014-5-3,77.0,71.4,68.2,75.8,71.1,68.6,100,99,89,30.02,29.95,10,5,15,0.00
2014-5-4,79.8,70.4,61.4,68.5,60.7,52.6,100,75,39,30.10,30.01,20,3,20,0.00
2014-5-5,82.0,70.6,59.8,66.2,62.7,59.9,100,78,55,30.10,30.01,11,2,12,0.00
2014-5-6,83.1,73.0,61.7,71.8,66.2,61.6,100,81,59,30.09,30.01,14,3,15,0.00
2014-5-7,84.3,77.7,69.2,75.8,70.5,67.9,99,79,67,30.18,30.05,16,5,16,0.00
2014-5-8,85.0,79.0,74.5,72.9,71.9,70.4,88,79,65,30.24,30.14,18,7,20,0.00
2014-5-9,84.0,78.6,75.1,72.9,71.7,70.9,88,79,67,30.23,30.13,18,7,19,0.00
2014-5-10,83.8,78.6,74.8,72.4,70.9,68.2,88,77,65,30.20,30.09,21,8,23,0.00
2014-5-11,83.5,78.2,74.9,73.9,71.3,68.5,88,79,71,30.19,30.09,15,4,16,0.00
2014-5-12,76.4,75.8,75.1,70.9,70.4,68.7,86,83,81,30.16,30.10,11,6,13,0.00
2014-11-3,71.0,70.5,70.0,56.9,56.5,56.0,62,61,59,30.33,30.30,20,7,20,0.00
2014-11-4,79.5,74.2,70.3,63.6,60.4,56.3,70,62,54,30.32,30.20,21,8,23,0.00
2014-11-5,81.7,76.0,73.4,68.2,65.2,62.3,80,69,60,30.25,30.14,21,7,21,0.00
2014-11-6,82.2,72.6,66.0,73.2,66.9,63.0,100,83,58,30.17,30.00,12,2,16,0.00
2014-11-7,73.7,67.8,62.4,70.0,61.8,56.8,100,82,64,30.01,29.94,16,4,19,0.00
2014-11-8,80.2,69.7,60.8,73.4,65.4,54.9,100,88,64,29.98,29.86,15,2,18,0.00
2014-11-9,66.4,63.5,60.0,66.0,63.4,60.0,100,100,100,29.94,29.84,15,2,16,0.00
2014-11-10,76.3,66.2,61.9,71.8,64.8,58.8,100,95,75,29.97,29.88,17,3,20,0.00
2014-11-11,75.0,67.9,60.2,69.7,62.6,54.7,100,83,70,29.97,29.88,17,5,20,0.00
2014-11-12,75.8,68.5,60.4,65.7,61.1,56.1,88,77,68,30.07,29.95,18,6,19,0.00
2014-11-13,76.4,68.5,59.0,68.0,63.1,54.9,100,84,65,30.09,29.99,12,4,12,0.00
2014-11-14,68.9,64.9,61.9,68.1,64.0,59.2,100,97,79,30.15,29.99,18,2,18,0.00
2014-11-15,72.6,67.1,58.4,67.3,61.7,56.3,100,84,70,30.24,30.12,13,4,15,0.00
2014-11-16,78.8,69.9,59.8,74.3,67.8,59.9,100,94,75,30.24,30.07,11,2,11,0.00
2014-11-17,86.3,74.6,67.6,77.7,70.8,67.5,100,90,61,30.07,29.90,32,6,35,0.00
2014-11-18,69.0,57.7,50.0,68.9,57.3,46.0,100,97,80,30.28,30.00,23,5,25,0.00
2014-11-19,62.8,54.9,47.2,59.5,51.4,43.1,100,89,78,30.33,30.23,23,5,25,0.00
2014-11-20,68.1,61.4,55.2,64.6,57.1,54.9,100,88,67,30.28,30.18,24,6,25,0.00
2014-11-21,74.1,70.5,67.7,64.9,61.0,59.2,87,72,63,30.29,30.18,24,8,24,0.00
2014-11-22,73.5,72.1,70.5,71.8,68.6,64.7,100,89,77,30.26,30.11,28,14,29,0.00
2014-11-23,82.2,75.3,71.9,78.7,74.1,70.8,100,96,79,30.12,29.92,26,7,28,0.00
2014-11-24,87.8,76.9,70.5,80.3,73.7,69.1,100,91,60,30.06,29.93,12,2,15,0.00
2014-11-25,82.3,76.1,72.4,81.0,75.3,72.4,100,98,91,30.06,29.90,22,3,24,0.00
2014-11-26,75.1,61.3,50.1,74.6,60.7,49.8,100,97,80,30.23,29.90,28,4,28,0.00
2014-11-27,71.0,60.1,50.1,52.4,48.3,39.3,100,67,47,30.31,30.17,18,4,20,0.00
2014-11-28,62.4,55.3,48.8,52.7,47.3,39.9,93,76,58,30.31,30.23,21,5,23,0.00
2014-11-29,72.8,63.1,52.4,62.2,55.7,52.3,100,79,55,30.32,30.23,15,4,16,0.00
2014-11-30,76.6,70.3,60.8,65.5,62.2,55.6,96,76,63,30.35,30.25,16,5,16,0.00
2014-12-1,77.3,72.4,68.8,69.9,67.3,64.4,96,84,72,30.34,30.23,19,6,22,0.00
2014-12-2,78.4,71.1,67.2,71.9,69.1,66.7,100,94,72,30.26,30.15,24,6,24,0.00
2014-12-3,78.1,72.3,67.1,74.0,68.7,66.2,100,89,73,30.21,30.14,19,7,19,0.00
2014-12-4,78.5,73.5,69.1,73.6,70.3,68.4,100,90,77,30.22,30.13,23,8,26,0.00
2014-12-5,80.0,73.4,68.7,75.8,71.4,68.7,100,94,80,30.26,30.18,23,6,26,0.00
2014-12-6,75.2,70.6,64.7,73.7,69.9,65.1,100,98,89,30.24,30.11,12,2,14,0.00
2014-12-7,69.8,65.3,59.7,67.4,64.5,59.7,100,97,86,30.14,30.05,23,4,23,0.00
2014-12-8,68.8,65.3,61.4,68.3,65.2,61.3,100,100,100,30.11,30.02,15,2,20,0.00
2014-12-9,66.8,58.7,53.2,61.9,54.5,47.7,100,87,55,30.09,29.99,19,4,21,0.00
2014-12-10,64.6,52.9,45.3,50.5,44.4,37.9,100,76,40,30.17,30.08,15,4,16,0.00
2014-12-11,65.8,52.9,44.7,52.1,47.3,44.3,100,84,50,30.24,30.13,15,3,18,0.00
2014-12-12,60.4,54.0,47.0,53.3,50.3,43.8,100,88,61,30.28,30.17,9,2,11,0.00
2014-12-13,65.8,56.5,46.4,55.7,51.4,45.9,100,84,59,30.25,30.10,19,2,21,0.00
2014-12-14,68.3,53.9,44.3,56.0,45.7,38.6,100,79,34,30.14,30.05,8,1,8,0.00
2014-12-15,69.8,54.7,44.4,59.9,48.0,44.5,100,82,41,30.17,30.08,9,0,9,0.00
2014-12-16,75.4,58.9,47.0,58.2,49.3,44.9,100,76,36,30.24,30.14,16,2,16,0.00
2014-12-17,75.9,63.2,55.7,64.7,59.1,51.5,100,89,61,30.23,30.10,13,3,15,0.00
2014-12-18,68.1,57.2,48.5,59.6,52.4,47.0,100,85,55,30.21,30.10,13,2,13,0.00
2014-12-19,68.4,59.8,51.6,60.9,55.7,51.7,100,88,68,30.14,30.07,10,1,11,0.00
2014-12-20,76.3,68.5,61.6,70.3,65.6,61.5,100,91,74,30.15,30.06,10,1,11,0.00
2014-12-21,78.0,68.5,61.3,71.0,66.6,61.2,100,95,74,30.15,30.03,14,2,14,0.00
2014-12-22,78.0,70.4,63.6,74.4,68.8,63.5,100,95,79,30.08,29.93,17,4,17,0.00
2014-12-23,78.0,71.7,63.7,76.9,71.0,63.9,100,98,91,30.05,29.94,5,5,14,0.00
2014-12-24,84.1,76.2,71.3,77.1,72.9,70.7,100,91,66,29.94,29.94,5,5,14,0.00
2014-12-25,74.8,63.2,58.2,74.3,57.7,48.5,100,82,57,30.05,29.94,5,5,14,0.00
2014-12-26,71.2,64.9,57.0,70.1,63.7,54.7,100,97,88,29.94,29.94,5,5,14,0.00
2014-12-27,78.6,71.1,65.6,76.1,70.6,65.8,100,99,91,29.94,29.94,5,5,14,0.00
2014-12-28,81.5,72.6,66.5,76.1,71.0,66.7,100,96,69,29.94,29.94,5,5,14,0.00
2014-12-29,83.0,73.0,66.3,76.6,70.2,66.5,100,91,70,29.94,29.94,5,5,14,0.00
2014-12-30,81.8,70.1,65.3,74.9,68.8,65.4,100,96,71,29.94,29.94,5,5,14,0.00
2014-12-31,72.5,70.2,68.8,72.1,70.1,68.5,100,100,99,30.05,29.94,5,5,14,0.00
2015-1-1,75.9,71.3,68.0,74.8,71.0,68.4,100,99,94,29.94,29.94,5,5,14,0.00
2015-1-2,71.9,69.3,67.2,71.5,69.1,67.2,100,100,100,29.94,29.94,5,5,14,0.00